sensor_id;sensor_type;location;lat;lon;timestamp;pressure;altitude;pressure_sealevel;temperature;humidity
78210;BME280;67485;48.816;9.930;2023-11-21T00:01:31;96297.66;;;6.66;100.00
78210;BME280;67485;48.816;9.930;2023-11-21T00:03:58;96301.91;;;6.70;100.00
78210;BME280;67485;48.816;9.930;2023-11-21T00:06:23;96289.75;;;6.69;100.00
78210;BME280;67485;48.816;9.930;2023-11-21T00:08:49;96292.38;;;6.69;100.00
78210;BME280;67485;48.816;9.930;2023-11-21T00:11:14;96289.72;;;6.71;100.00
78210;BME280;67485;48.816;9.930;2023-11-21T00:13:40;96284.41;;;6.77;100.00
78210;BME280;67485;48.816;9.930;2023-11-21T00:16:06;96291.31;;;6.78;100.00
78210;BME280;67485;48.816;9.930;2023-11-21T00:18:32;96274.91;;;6.74;100.00
78210;BME280;67485;48.816;9.930;2023-11-21T00:20:58;96280.19;;;6.71;100.00
78210;BME280;67485;48.816;9.930;2023-11-21T00:23:24;96277.59;;;6.70;100.00
78210;BME280;67485;48.816;9.930;2023-11-21T00:25:50;96272.50;;;6.63;100.00
78210;BME280;67485;48.816;9.930;2023-11-21T00:28:15;96276.81;;;6.64;100.00
78210;BME280;67485;48.816;9.930;2023-11-21T00:30:41;96266.25;;;6.72;100.00
78210;BME280;67485;48.816;9.930;2023-11-21T00:33:07;96273.25;;;6.70;100.00
78210;BME280;67485;48.816;9.930;2023-11-21T00:35:32;96275.81;;;6.72;100.00
78210;BME280;67485;48.816;9.930;2023-11-21T00:37:58;96279.38;;;6.68;100.00
78210;BME280;67485;48.816;9.930;2023-11-21T00:40:24;96277.59;;;6.70;100.00
78210;BME280;67485;48.816;9.930;2023-11-21T00:42:50;96272.22;;;6.79;100.00
78210;BME280;67485;48.816;9.930;2023-11-21T00:45:16;96279.06;;;6.83;100.00
78210;BME280;67485;48.816;9.930;2023-11-21T00:47:41;96286.66;;;6.94;100.00
78210;BME280;67485;48.816;9.930;2023-11-21T00:50:08;96274.44;;;6.96;100.00
78210;BME280;67485;48.816;9.930;2023-11-21T00:52:35;96277.16;;;6.91;100.00
78210;BME280;67485;48.816;9.930;2023-11-21T00:55:02;96273.59;;;6.95;100.00
78210;BME280;67485;48.816;9.930;2023-11-21T00:57:28;96266.63;;;6.97;100.00
78210;BME280;67485;48.816;9.930;2023-11-21T00:59:55;96267.50;;;6.96;100.00
78210;BME280;67485;48.816;9.930;2023-11-21T01:02:20;96272.69;;;6.98;99.75
78210;BME280;67485;48.816;9.930;2023-11-21T01:04:46;96277.03;;;6.97;99.83
78210;BME280;67485;48.816;9.930;2023-11-21T01:07:13;96276.22;;;6.95;99.63
78210;BME280;67485;48.816;9.930;2023-11-21T01:09:39;96274.50;;;6.94;99.94
78210;BME280;67485;48.816;9.930;2023-11-21T01:12:04;96284.09;;;6.92;99.93
78210;BME280;67485;48.816;9.930;2023-11-21T01:14:30;96271.97;;;6.91;99.97
78210;BME280;67485;48.816;9.930;2023-11-21T01:16:56;96273.59;;;6.95;100.00
78210;BME280;67485;48.816;9.930;2023-11-21T01:19:22;96278.91;;;6.91;100.00
78210;BME280;67485;48.816;9.930;2023-11-21T01:21:47;96266.00;;;6.85;100.00
78210;BME280;67485;48.816;9.930;2023-11-21T01:24:13;96279.78;;;6.90;100.00
78210;BME280;67485;48.816;9.930;2023-11-21T01:26:39;96264.13;;;6.93;100.00
78210;BME280;67485;48.816;9.930;2023-11-21T01:29:04;96257.13;;;6.93;100.00
78210;BME280;67485;48.816;9.930;2023-11-21T01:31:30;96254.63;;;6.90;100.00
78210;BME280;67485;48.816;9.930;2023-11-21T01:33:57;96252.00;;;6.90;100.00
78210;BME280;67485;48.816;9.930;2023-11-21T01:36:22;96260.53;;;6.97;100.00
78210;BME280;67485;48.816;9.930;2023-11-21T01:38:48;96260.53;;;6.97;100.00
78210;BME280;67485;48.816;9.930;2023-11-21T01:41:14;96265.03;;;6.90;100.00
78210;BME280;67485;48.816;9.930;2023-11-21T01:43:40;96272.13;;;6.84;100.00
78210;BME280;67485;48.816;9.930;2023-11-21T01:46:06;96270.28;;;6.87;100.00
78210;BME280;67485;48.816;9.930;2023-11-21T01:48:33;96270.38;;;6.84;100.00
78210;BME280;67485;48.816;9.930;2023-11-21T01:50:59;96273.72;;;6.89;100.00
78210;BME280;67485;48.816;9.930;2023-11-21T01:53:26;96269.25;;;6.96;100.00
78210;BME280;67485;48.816;9.930;2023-11-21T01:55:51;96264.16;;;6.91;100.00
78210;BME280;67485;48.816;9.930;2023-11-21T01:58:19;96269.22;;;6.97;100.00
78210;BME280;67485;48.816;9.930;2023-11-21T02:00:45;96261.28;;;7.04;100.00
78210;BME280;67485;48.816;9.930;2023-11-21T02:03:11;96269.03;;;7.07;100.00
78210;BME280;67485;48.816;9.930;2023-11-21T02:05:37;96268.13;;;7.08;100.00
78210;BME280;67485;48.816;9.930;2023-11-21T02:08:03;96268.06;;;7.11;100.00
78210;BME280;67485;48.816;9.930;2023-11-21T02:10:30;96266.16;;;7.19;100.00
78210;BME280;67485;48.816;9.930;2023-11-21T02:12:57;96258.38;;;7.18;100.00
78210;BME280;67485;48.816;9.930;2023-11-21T02:15:24;96266.16;;;7.19;100.00
78210;BME280;67485;48.816;9.930;2023-11-21T02:17:54;96263.63;;;7.16;100.00
78210;BME280;67485;48.816;9.930;2023-11-21T02:20:21;96261.78;;;7.21;100.00
78210;BME280;67485;48.816;9.930;2023-11-21T02:22:55;96256.56;;;7.20;100.00
78210;BME280;67485;48.816;9.930;2023-11-21T02:25:25;96264.38;;;7.21;100.00
78210;BME280;67485;48.816;9.930;2023-11-21T02:27:51;96260.84;;;7.22;100.00
78210;BME280;67485;48.816;9.930;2023-11-21T02:30:17;96267.03;;;7.18;100.00
78210;BME280;67485;48.816;9.930;2023-11-21T02:32:42;96264.44;;;7.18;100.00
78210;BME280;67485;48.816;9.930;2023-11-21T02:35:09;96261.06;;;7.13;100.00
78210;BME280;67485;48.816;9.930;2023-11-21T02:37:34;96256.00;;;7.07;100.00
78210;BME280;67485;48.816;9.930;2023-11-21T02:40:01;96258.69;;;7.04;100.00
78210;BME280;67485;48.816;9.930;2023-11-21T02:42:30;96263.91;;;7.04;100.00
78210;BME280;67485;48.816;9.930;2023-11-21T02:44:55;96262.09;;;7.07;100.00
78210;BME280;67485;48.816;9.930;2023-11-21T02:47:22;96262.00;;;7.10;100.00
78210;BME280;67485;48.816;9.930;2023-11-21T02:49:49;96263.63;;;7.16;100.00
78210;BME280;67485;48.816;9.930;2023-11-21T02:52:15;96263.75;;;7.10;100.00
78210;BME280;67485;48.816;9.930;2023-11-21T02:54:41;96255.88;;;7.13;100.00
78210;BME280;67485;48.816;9.930;2023-11-21T02:57:08;96253.22;;;7.14;100.00
78210;BME280;67485;48.816;9.930;2023-11-21T02:59:34;96253.28;;;7.11;100.00
78210;BME280;67485;48.816;9.930;2023-11-21T03:02:00;96255.88;;;7.13;100.00
78210;BME280;67485;48.816;9.930;2023-11-21T03:04:26;96251.47;;;7.15;100.00
78210;BME280;67485;48.816;9.930;2023-11-21T03:06:52;96254.88;;;7.19;100.00
78210;BME280;67485;48.816;9.930;2023-11-21T03:09:18;96251.34;;;7.21;100.00
78210;BME280;67485;48.816;9.930;2023-11-21T03:11:43;96252.16;;;7.23;100.00
78210;BME280;67485;48.816;9.930;2023-11-21T03:14:09;96254.63;;;7.29;100.00
78210;BME280;67485;48.816;9.930;2023-11-21T03:16:36;96246.75;;;7.33;100.00
78210;BME280;67485;48.816;9.930;2023-11-21T03:19:04;96244.94;;;7.35;100.00
78210;BME280;67485;48.816;9.930;2023-11-21T03:21:30;96250.09;;;7.38;100.00
78210;BME280;67485;48.816;9.930;2023-11-21T03:23:56;96249.28;;;7.36;100.00
78210;BME280;67485;48.816;9.930;2023-11-21T03:26:22;96251.88;;;7.36;100.00
78210;BME280;67485;48.816;9.930;2023-11-21T03:28:48;96260.00;;;7.22;100.00
78210;BME280;67485;48.816;9.930;2023-11-21T03:31:13;96260.84;;;7.22;100.00
78210;BME280;67485;48.816;9.930;2023-11-21T03:33:39;96252.09;;;7.26;100.00
78210;BME280;67485;48.816;9.930;2023-11-21T03:36:05;96254.72;;;7.26;100.00
78210;BME280;67485;48.816;9.930;2023-11-21T03:38:33;96257.22;;;7.29;100.00
78210;BME280;67485;48.816;9.930;2023-11-21T03:40:58;96250.28;;;7.28;100.00
78210;BME280;67485;48.816;9.930;2023-11-21T03:43:26;96249.53;;;7.25;100.00
78210;BME280;67485;48.816;9.930;2023-11-21T03:45:52;96249.38;;;7.31;100.00
78210;BME280;67485;48.816;9.930;2023-11-21T03:48:18;96252.84;;;7.32;100.00
78210;BME280;67485;48.816;9.930;2023-11-21T03:50:43;96253.88;;;7.24;100.00
78210;BME280;67485;48.816;9.930;2023-11-21T03:53:09;96261.16;;;7.10;100.00
78210;BME280;67485;48.816;9.930;2023-11-21T03:55:34;96249.06;;;7.06;100.00
78210;BME280;67485;48.816;9.930;2023-11-21T03:58:00;96253.44;;;7.05;100.00
78210;BME280;67485;48.816;9.930;2023-11-21T04:00:26;96259.50;;;7.06;100.00
78210;BME280;67485;48.816;9.930;2023-11-21T04:02:54;96257.75;;;7.05;100.00
78210;BME280;67485;48.816;9.930;2023-11-21T04:05:20;96261.03;;;7.14;100.00
78210;BME280;67485;48.816;9.930;2023-11-21T04:07:49;96253.16;;;7.18;100.00
78210;BME280;67485;48.816;9.930;2023-11-21T04:10:15;96263.50;;;7.21;100.00
78210;BME280;67485;48.816;9.930;2023-11-21T04:12:41;96252.38;;;7.14;100.00
78210;BME280;67485;48.816;9.930;2023-11-21T04:15:07;96261.78;;;7.21;100.00
78210;BME280;67485;48.816;9.930;2023-11-21T04:17:34;96264.28;;;7.24;100.00
78210;BME280;67485;48.816;9.930;2023-11-21T04:20:00;96257.31;;;7.26;100.00
78210;BME280;67485;48.816;9.930;2023-11-21T04:22:26;96264.28;;;7.24;100.00
78210;BME280;67485;48.816;9.930;2023-11-21T04:24:51;96269.50;;;7.24;100.00
78210;BME280;67485;48.816;9.930;2023-11-21T04:27:17;96264.38;;;7.21;100.00
78210;BME280;67485;48.816;9.930;2023-11-21T04:29:44;96268.63;;;7.25;100.00
78210;BME280;67485;48.816;9.930;2023-11-21T04:32:09;96266.22;;;7.16;100.00
78210;BME280;67485;48.816;9.930;2023-11-21T04:34:35;96274.13;;;7.11;100.00
78210;BME280;67485;48.816;9.930;2023-11-21T04:37:01;96271.63;;;7.07;100.00
78210;BME280;67485;48.816;9.930;2023-11-21T04:39:26;96267.41;;;7.01;100.00
78210;BME280;67485;48.816;9.930;2023-11-21T04:41:52;96274.44;;;6.97;100.00
78210;BME280;67485;48.816;9.930;2023-11-21T04:44:17;96281.50;;;6.92;100.00
78210;BME280;67485;48.816;9.930;2023-11-21T04:46:43;96287.50;;;6.94;100.00
78210;BME280;67485;48.816;9.930;2023-11-21T04:49:09;96282.31;;;6.94;100.00
78210;BME280;67485;48.816;9.930;2023-11-21T04:51:34;96285.75;;;6.96;100.00
78210;BME280;67485;48.816;9.930;2023-11-21T04:54:00;96284.72;;;7.04;100.00
78210;BME280;67485;48.816;9.930;2023-11-21T04:56:25;96278.59;;;7.05;100.00
78210;BME280;67485;48.816;9.930;2023-11-21T04:58:53;96288.84;;;7.14;100.00
78210;BME280;67485;48.816;9.930;2023-11-21T05:01:19;96288.72;;;7.20;100.00
78210;BME280;67485;48.816;9.930;2023-11-21T05:03:45;96292.97;;;7.24;100.00
78210;BME280;67485;48.816;9.930;2023-11-21T05:06:12;96293.84;;;7.23;100.00
78210;BME280;67485;48.816;9.930;2023-11-21T05:08:39;96292.06;;;7.25;100.00
78210;BME280;67485;48.816;9.930;2023-11-21T05:11:05;96290.22;;;7.30;100.00
78210;BME280;67485;48.816;9.930;2023-11-21T05:13:34;96290.31;;;7.27;100.00
78210;BME280;67485;48.816;9.930;2023-11-21T05:16:00;96293.06;;;7.20;100.00
78210;BME280;67485;48.816;9.930;2023-11-21T05:18:25;96294.19;;;7.08;100.00
78210;BME280;67485;48.816;9.930;2023-11-21T05:20:55;96300.19;;;7.11;100.00
78210;BME280;67485;48.816;9.930;2023-11-21T05:23:21;96307.19;;;7.09;100.00
78210;BME280;67485;48.816;9.930;2023-11-21T05:25:47;96295.91;;;7.09;100.00
78210;BME280;67485;48.816;9.930;2023-11-21T05:28:13;96308.06;;;7.10;100.00
78210;BME280;67485;48.816;9.930;2023-11-21T05:30:38;96303.56;;;7.17;100.00
78210;BME280;67485;48.816;9.930;2023-11-21T05:33:05;96312.16;;;7.20;100.00
78210;BME280;67485;48.816;9.930;2023-11-21T05:35:31;96313.13;;;7.16;100.00
78210;BME280;67485;48.816;9.930;2023-11-21T05:37:56;96321.84;;;7.15;100.00
78210;BME280;67485;48.816;9.930;2023-11-21T05:40:22;96314.75;;;7.22;100.00
78210;BME280;67485;48.816;9.930;2023-11-21T05:42:48;96328.63;;;7.22;100.00
78210;BME280;67485;48.816;9.930;2023-11-21T05:45:16;96329.75;;;7.10;100.00
78210;BME280;67485;48.816;9.930;2023-11-21T05:47:46;96328.19;;;7.02;100.00
78210;BME280;67485;48.816;9.930;2023-11-21T05:50:13;96333.47;;;6.97;100.00
78210;BME280;67485;48.816;9.930;2023-11-21T05:52:44;96323.81;;;7.04;100.00
78210;BME280;67485;48.816;9.930;2023-11-21T05:55:10;96325.63;;;7.00;100.00
78210;BME280;67485;48.816;9.930;2023-11-21T05:57:38;96328.94;;;7.07;100.00
78210;BME280;67485;48.816;9.930;2023-11-21T06:00:11;96331.50;;;7.10;100.00
78210;BME280;67485;48.816;9.930;2023-11-21T06:02:53;96334.88;;;7.15;100.00
78210;BME280;67485;48.816;9.930;2023-11-21T06:05:21;96332.44;;;7.06;100.00
78210;BME280;67485;48.816;9.930;2023-11-21T06:07:49;96342.16;;;6.97;100.00
78210;BME280;67485;48.816;9.930;2023-11-21T06:10:15;96338.66;;;7.00;100.00
78210;BME280;67485;48.816;9.930;2023-11-21T06:12:43;96341.25;;;6.98;100.00
78210;BME280;67485;48.816;9.930;2023-11-21T06:15:10;96340.41;;;6.98;100.00
78210;BME280;67485;48.816;9.930;2023-11-21T06:17:39;96340.59;;;6.89;100.00
78210;BME280;67485;48.816;9.930;2023-11-21T06:20:09;96348.44;;;6.87;100.00
78210;BME280;67485;48.816;9.930;2023-11-21T06:22:43;96344.22;;;6.81;100.00
78210;BME280;67485;48.816;9.930;2023-11-21T06:25:09;96349.38;;;6.83;100.00
78210;BME280;67485;48.816;9.930;2023-11-21T06:27:41;96355.50;;;6.80;100.00
78210;BME280;67485;48.816;9.930;2023-11-21T06:30:07;96348.63;;;6.78;100.00
78210;BME280;67485;48.816;9.930;2023-11-21T06:32:38;96348.63;;;6.78;100.00
78210;BME280;67485;48.816;9.930;2023-11-21T06:35:06;96345.06;;;6.82;100.00
78210;BME280;67485;48.816;9.930;2023-11-21T06:37:32;96348.38;;;6.90;100.00
78210;BME280;67485;48.816;9.930;2023-11-21T06:39:59;96349.09;;;6.97;100.00
78210;BME280;67485;48.816;9.930;2023-11-21T06:42:25;96350.00;;;6.97;100.00
78210;BME280;67485;48.816;9.930;2023-11-21T06:44:51;96349.94;;;6.99;100.00
78210;BME280;67485;48.816;9.930;2023-11-21T06:47:17;96357.72;;;7.01;100.00
78210;BME280;67485;48.816;9.930;2023-11-21T06:49:43;96368.91;;;7.06;100.00
78210;BME280;67485;48.816;9.930;2023-11-21T06:52:09;96361.84;;;7.11;100.00
78210;BME280;67485;48.816;9.930;2023-11-21T06:54:34;96363.66;;;7.09;100.00
78210;BME280;67485;48.816;9.930;2023-11-21T06:57:02;96361.84;;;7.11;100.00
78210;BME280;67485;48.816;9.930;2023-11-21T06:59:28;96367.81;;;7.18;100.00
78210;BME280;67485;48.816;9.930;2023-11-21T07:01:54;96372.88;;;7.25;100.00
78210;BME280;67485;48.816;9.930;2023-11-21T07:04:19;96376.28;;;7.29;100.00
78210;BME280;67485;48.816;9.930;2023-11-21T07:06:45;96384.19;;;7.24;100.00
78210;BME280;67485;48.816;9.930;2023-11-21T07:09:11;96390.44;;;7.16;100.00
78210;BME280;67485;48.816;9.930;2023-11-21T07:11:37;96394.97;;;7.06;100.00
78210;BME280;67485;48.816;9.930;2023-11-21T07:14:05;96390.59;;;7.08;100.00
78210;BME280;67485;48.816;9.930;2023-11-21T07:16:36;96391.25;;;7.19;100.00
78210;BME280;67485;48.816;9.930;2023-11-21T07:19:05;96394.56;;;7.27;100.00
78210;BME280;67485;48.816;9.930;2023-11-21T07:21:36;96399.66;;;7.34;100.00
78210;BME280;67485;48.816;9.930;2023-11-21T07:24:03;96402.25;;;7.32;100.00
78210;BME280;67485;48.816;9.930;2023-11-21T07:26:30;96403.06;;;7.36;100.00
78210;BME280;67485;48.816;9.930;2023-11-21T07:28:55;96403.31;;;7.23;100.00
78210;BME280;67485;48.816;9.930;2023-11-21T07:31:22;96414.59;;;7.24;100.00
78210;BME280;67485;48.816;9.930;2023-11-21T07:33:48;96406.94;;;7.16;100.00
78210;BME280;67485;48.816;9.930;2023-11-21T07:36:14;96414.00;;;7.09;100.00
78210;BME280;67485;48.816;9.930;2023-11-21T07:38:41;96422.19;;;6.89;100.00
78210;BME280;67485;48.816;9.930;2023-11-21T07:41:08;96425.78;;;6.82;100.00
78210;BME280;67485;48.816;9.930;2023-11-21T07:43:35;96429.78;;;7.02;100.00
78210;BME280;67485;48.816;9.930;2023-11-21T07:46:01;96436.50;;;7.15;100.00
78210;BME280;67485;48.816;9.930;2023-11-21T07:48:32;96432.06;;;7.20;100.00
78210;BME280;67485;48.816;9.930;2023-11-21T07:50:58;96424.88;;;7.32;100.00
78210;BME280;67485;48.816;9.930;2023-11-21T07:53:24;96425.72;;;7.34;100.00
78210;BME280;67485;48.816;9.930;2023-11-21T07:56:02;96430.59;;;7.49;100.00
78210;BME280;67485;48.816;9.930;2023-11-21T07:58:28;96432.31;;;7.50;100.00
78210;BME280;67485;48.816;9.930;2023-11-21T08:00:54;96428.88;;;7.48;100.00
78210;BME280;67485;48.816;9.930;2023-11-21T08:03:19;96435.81;;;7.49;100.00
78210;BME280;67485;48.816;9.930;2023-11-21T08:05:45;96426.06;;;7.57;100.00
78210;BME280;67485;48.816;9.930;2023-11-21T08:08:10;96430.28;;;7.65;100.00
78210;BME280;67485;48.816;9.930;2023-11-21T08:10:36;96431.06;;;7.68;100.00
78210;BME280;67485;48.816;9.930;2023-11-21T08:13:02;96435.44;;;7.68;100.00
78210;BME280;67485;48.816;9.930;2023-11-21T08:15:29;96444.16;;;7.67;100.00
78210;BME280;67485;48.816;9.930;2023-11-21T08:17:57;96432.56;;;7.78;100.00
78210;BME280;67485;48.816;9.930;2023-11-21T08:20:24;96428.78;;;7.93;100.00
78210;BME280;67485;48.816;9.930;2023-11-21T08:22:50;96428.41;;;8.10;100.00
78210;BME280;67485;48.816;9.930;2023-11-21T08:25:18;96429.91;;;8.21;100.00
78210;BME280;67485;48.816;9.930;2023-11-21T08:27:46;96432.19;;;8.35;100.00
78210;BME280;67485;48.816;9.930;2023-11-21T08:30:12;96431.91;;;8.47;98.95
78210;BME280;67485;48.816;9.930;2023-11-21T08:32:39;96431.63;;;8.59;97.40
78210;BME280;67485;48.816;9.930;2023-11-21T08:35:07;96436.66;;;8.67;96.78
78210;BME280;67485;48.816;9.930;2023-11-21T08:37:33;96440.63;;;8.82;96.16
78210;BME280;67485;48.816;9.930;2023-11-21T08:40:03;96439.66;;;8.86;95.27
78210;BME280;67485;48.816;9.930;2023-11-21T08:42:29;96445.19;;;8.74;95.04
78210;BME280;67485;48.816;9.930;2023-11-21T08:44:56;96456.69;;;8.67;95.33
78210;BME280;67485;48.816;9.930;2023-11-21T08:47:23;96452.59;;;8.56;95.06
78210;BME280;67485;48.816;9.930;2023-11-21T08:49:50;96450.72;;;8.62;95.33
78210;BME280;67485;48.816;9.930;2023-11-21T08:52:19;96457.44;;;8.72;95.18
78210;BME280;67485;48.816;9.930;2023-11-21T08:54:48;96454.44;;;8.51;94.94
78210;BME280;67485;48.816;9.930;2023-11-21T08:57:24;96456.75;;;8.64;95.09
78210;BME280;67485;48.816;9.930;2023-11-21T08:59:50;96458.56;;;8.62;94.85
78210;BME280;67485;48.816;9.930;2023-11-21T09:02:25;96469.91;;;8.60;95.17
78210;BME280;67485;48.816;9.930;2023-11-21T09:04:51;96469.97;;;8.57;95.42
78210;BME280;67485;48.816;9.930;2023-11-21T09:07:20;96468.28;;;8.56;95.56
78210;BME280;67485;48.816;9.930;2023-11-21T09:09:47;96471.03;;;8.50;95.90
78210;BME280;67485;48.816;9.930;2023-11-21T09:12:13;96467.78;;;8.39;96.19
78210;BME280;67485;48.816;9.930;2023-11-21T09:14:39;96476.84;;;8.24;96.57
78210;BME280;67485;48.816;9.930;2023-11-21T09:17:05;96472.69;;;8.15;97.26
78210;BME280;67485;48.816;9.930;2023-11-21T09:19:39;96470.81;;;8.20;97.55
78210;BME280;67485;48.816;9.930;2023-11-21T09:22:04;96468.13;;;8.23;97.15
78210;BME280;67485;48.816;9.930;2023-11-21T09:24:34;96470.13;;;8.12;97.13
78210;BME280;67485;48.816;9.930;2023-11-21T09:26:59;96470.81;;;8.20;97.05
78210;BME280;67485;48.816;9.930;2023-11-21T09:29:26;96488.78;;;8.34;97.01
78210;BME280;67485;48.816;9.930;2023-11-21T09:31:52;96490.59;;;8.31;96.99
78210;BME280;67485;48.816;9.930;2023-11-21T09:34:17;96493.28;;;8.27;97.17
78210;BME280;67485;48.816;9.930;2023-11-21T09:36:47;96496.56;;;8.36;97.27
78210;BME280;67485;48.816;9.930;2023-11-21T09:39:13;96494.00;;;8.34;97.38
78210;BME280;67485;48.816;9.930;2023-11-21T09:41:49;96496.38;;;8.45;97.17
78210;BME280;67485;48.816;9.930;2023-11-21T09:44:18;96491.13;;;8.45;96.83
78210;BME280;67485;48.816;9.930;2023-11-21T09:46:47;96496.31;;;8.48;96.40
78210;BME280;67485;48.816;9.930;2023-11-21T09:49:15;96496.41;;;8.42;96.60
78210;BME280;67485;48.816;9.930;2023-11-21T09:51:45;96497.00;;;8.56;96.08
78210;BME280;67485;48.816;9.930;2023-11-21T09:54:15;96499.75;;;8.50;96.44
78210;BME280;67485;48.816;9.930;2023-11-21T09:56:41;96493.75;;;8.47;96.26
78210;BME280;67485;48.816;9.930;2023-11-21T09:59:14;96502.94;;;8.63;96.07
78210;BME280;67485;48.816;9.930;2023-11-21T10:01:42;96502.38;;;8.86;95.86
78210;BME280;67485;48.816;9.930;2023-11-21T10:04:08;96488.47;;;8.84;95.76
78210;BME280;67485;48.816;9.930;2023-11-21T10:06:40;96492.41;;;9.01;95.27
78210;BME280;67485;48.816;9.930;2023-11-21T10:09:12;96496.59;;;9.08;94.87
78210;BME280;67485;48.816;9.930;2023-11-21T10:11:42;96505.91;;;8.84;94.47
78210;BME280;67485;48.816;9.930;2023-11-21T10:14:11;96497.25;;;8.82;94.80
78210;BME280;67485;48.816;9.930;2023-11-21T10:16:41;96494.50;;;8.88;94.89
78210;BME280;67485;48.816;9.930;2023-11-21T10:19:10;96497.69;;;8.99;94.78
78210;BME280;67485;48.816;9.930;2023-11-21T10:21:38;96501.88;;;9.05;94.06
78210;BME280;67485;48.816;9.930;2023-11-21T10:24:04;96499.44;;;8.99;93.91
78210;BME280;67485;48.816;9.930;2023-11-21T10:26:31;96497.75;;;8.96;93.85
78210;BME280;67485;48.816;9.930;2023-11-21T10:28:57;96498.84;;;8.87;93.99
78210;BME280;67485;48.816;9.930;2023-11-21T10:31:24;96496.91;;;8.96;94.23
78210;BME280;67485;48.816;9.930;2023-11-21T10:33:50;96505.00;;;8.85;93.68
78210;BME280;67485;48.816;9.930;2023-11-21T10:36:27;96503.41;;;8.79;94.01
78210;BME280;67485;48.816;9.930;2023-11-21T10:38:53;96510.22;;;8.86;94.44
78210;BME280;67485;48.816;9.930;2023-11-21T10:41:20;96507.22;;;9.02;94.23
78210;BME280;67485;48.816;9.930;2023-11-21T10:43:46;96511.19;;;9.17;93.69
78210;BME280;67485;48.816;9.930;2023-11-21T10:46:13;96505.47;;;9.35;92.47
78210;BME280;67485;48.816;9.930;2023-11-21T10:48:41;96499.53;;;9.62;90.79
78210;BME280;67485;48.816;9.930;2023-11-21T10:51:08;96501.72;;;10.65;87.21
78210;BME280;67485;48.816;9.930;2023-11-21T10:53:41;96496.25;;;12.23;80.85
78210;BME280;67485;48.816;9.930;2023-11-21T10:56:13;96487.31;;;13.35;73.69
78210;BME280;67485;48.816;9.930;2023-11-21T10:58:43;96489.06;;;14.54;68.99
78210;BME280;67485;48.816;9.930;2023-11-21T11:01:09;96485.03;;;13.69;68.65
78210;BME280;67485;48.816;9.930;2023-11-21T11:03:37;96488.09;;;13.17;70.36
78210;BME280;67485;48.816;9.930;2023-11-21T11:06:05;96488.59;;;12.84;71.65
78210;BME280;67485;48.816;9.930;2023-11-21T11:08:33;96489.75;;;12.54;73.75
78210;BME280;67485;48.816;9.930;2023-11-21T11:10:59;96494.03;;;12.57;73.99
78210;BME280;67485;48.816;9.930;2023-11-21T11:13:25;96493.53;;;11.77;74.47
78210;BME280;67485;48.816;9.930;2023-11-21T11:15:56;96498.34;;;11.90;76.06
78210;BME280;67485;48.816;9.930;2023-11-21T11:18:25;96481.53;;;11.70;76.49
78210;BME280;67485;48.816;9.930;2023-11-21T11:20:51;96488.63;;;11.17;76.93
78210;BME280;67485;48.816;9.930;2023-11-21T11:28:48;96490.09;;;11.26;77.12
78210;BME280;67485;48.816;9.930;2023-11-21T11:34:47;96491.31;;;11.16;78.41
78210;BME280;67485;48.816;9.930;2023-11-21T11:37:15;96488.19;;;11.05;77.68
78210;BME280;67485;48.816;9.930;2023-11-21T11:39:42;96487.31;;;11.04;79.22
78210;BME280;67485;48.816;9.930;2023-11-21T11:42:13;96490.88;;;11.03;78.88
78210;BME280;67485;48.816;9.930;2023-11-21T11:47:16;96498.13;;;10.95;79.32
78210;BME280;67485;48.816;9.930;2023-11-21T11:50:07;96488.50;;;10.95;79.49
78210;BME280;67485;48.816;9.930;2023-11-21T11:52:34;96501.38;;;11.28;78.47
78210;BME280;67485;48.816;9.930;2023-11-21T11:55:00;96494.56;;;12.44;73.39
78210;BME280;67485;48.816;9.930;2023-11-21T11:57:30;96495.91;;;12.55;72.74
78210;BME280;67485;48.816;9.930;2023-11-21T12:00:10;96494.44;;;12.70;71.44
78210;BME280;67485;48.816;9.930;2023-11-21T12:02:37;96497.78;;;12.73;72.13
78210;BME280;67485;48.816;9.930;2023-11-21T12:05:14;96496.13;;;12.48;72.01
78210;BME280;67485;48.816;9.930;2023-11-21T12:07:54;96485.31;;;12.56;72.39
78210;BME280;67485;48.816;9.930;2023-11-21T12:10:25;96490.44;;;12.81;72.41
78210;BME280;67485;48.816;9.930;2023-11-21T12:12:56;96494.44;;;12.70;72.26
78210;BME280;67485;48.816;9.930;2023-11-21T12:15:22;96484.53;;;12.32;72.65
78210;BME280;67485;48.816;9.930;2023-11-21T12:17:49;96494.66;;;11.94;73.73
78210;BME280;67485;48.816;9.930;2023-11-21T12:20:18;96497.13;;;11.75;75.51
78210;BME280;67485;48.816;9.930;2023-11-21T12:25:15;96497.19;;;11.23;77.87
78210;BME280;67485;48.816;9.930;2023-11-21T12:27:45;96502.56;;;11.19;78.77
78210;BME280;67485;48.816;9.930;2023-11-21T12:30:12;96502.97;;;10.80;79.44
78210;BME280;67485;48.816;9.930;2023-11-21T12:32:47;96506.72;;;10.73;80.47
78210;BME280;67485;48.816;9.930;2023-11-21T12:35:13;96507.94;;;10.61;81.15
78210;BME280;67485;48.816;9.930;2023-11-21T12:37:40;96508.38;;;10.17;81.60
78210;BME280;67485;48.816;9.930;2023-11-21T12:40:09;96519.13;;;9.78;83.08
78210;BME280;67485;48.816;9.930;2023-11-21T12:42:54;96521.84;;;9.73;84.67
78210;BME280;67485;48.816;9.930;2023-11-21T12:45:22;96521.97;;;9.69;85.15
78210;BME280;67485;48.816;9.930;2023-11-21T12:47:52;96520.13;;;9.74;85.96
78210;BME280;67485;48.816;9.930;2023-11-21T12:50:25;96522.75;;;9.74;85.84
78210;BME280;67485;48.816;9.930;2023-11-21T12:52:58;96521.41;;;9.57;86.01
78210;BME280;67485;48.816;9.930;2023-11-21T12:55:24;96518.94;;;9.84;86.11
78210;BME280;67485;48.816;9.930;2023-11-21T12:57:52;96519.13;;;9.78;85.60
78210;BME280;67485;48.816;9.930;2023-11-21T13:00:31;96523.47;;;9.78;86.29
78210;BME280;67485;48.816;9.930;2023-11-21T13:02:59;96521.00;;;9.73;86.12
78210;BME280;67485;48.816;9.930;2023-11-21T13:05:28;96523.06;;;9.93;86.15
78210;BME280;67485;48.816;9.930;2023-11-21T13:07:55;96523.00;;;9.95;85.60
78210;BME280;67485;48.816;9.930;2023-11-21T13:10:26;96527.53;;;9.89;85.52
78210;BME280;67485;48.816;9.930;2023-11-21T13:12:57;96532.94;;;9.83;85.58
78210;BME280;67485;48.816;9.930;2023-11-21T13:15:24;96524.97;;;9.86;85.61
78210;BME280;67485;48.816;9.930;2023-11-21T13:17:50;96528.19;;;9.98;85.56